Genesee Depot, WI (53127)

6:13 AM CST on February 20, 2017 (GMT -0600)
GENESEE DEPOT, WI 53127 | | Change Station
Active Advisory: Small Craft Advisory

Elev 931 ft 42.97 °N, 88.36 °W | Updated 1 minute ago

Partly Cloudy
Partly Cloudy
36.3 °F
Feels Like 36 °F
N
0.0
Wind Variable Wind from SSE
Gusts 0.0 mph

Today
High -- | Low -- °F
--% Chance of Precip.
Yesterday
High -- | Low -- °F
Precip. -- in
Pressure 30.13 in
Visibility 10.0 miles
Clouds Clear
Windchill 36 °F
Dew Point 32 °F
Humidity 86%
Rainfall 0.00 in
Snow Depth Not available.
6:43 AM 5:31 PM
Waning Crescent, 34% visible
METAR KUES 201145Z 00000KT 10SM SKC 01/M01 A3013
Pressure 30.13 in
Visibility 10.0 miles
Clouds Clear
Windchill 36 °F
Dew Point 32 °F
Humidity 86%
Rainfall 0.00 in
Snow Depth Not available.
6:43 AM 5:31 PM
Waning Crescent, 34% visible
METAR KUES 201145Z 00000KT 10SM SKC 01/M01 A3013

Get Your Daily Forecast Email!

Thanks for signing up!

Be on the lookout for a verification email in your inbox.

You'll start receiving the daily forecast at 8 AM.

×

10-Day Weather Forecast

Almanac

Astronomy

Feb. 20, 2017 Rise Set
Actual Time
Civil Twilight
Nautical Twilight
Astronomical Twilight
Moon
Length of Visible Light
Length of Day
Tomorrow will be .
, % of the Moon is Illuminated

Today's Extremes

State Highs State Lows

Community

WunderPhotos

Upload Photos

1,962,540 photos uploaded!

WunderBlog® & News

Nearby

Air Quality

  Air Quality AQ Index Pollutant
Not available.

Snow Depth

Station Depth Elevation

Earthquake Activity

City Distance Mag. Time & Date
Minimum magnitude displayed is 2.5.

Coastal Water Temperatures

Place Temperature

Stations

Nearby Weather Stations

Station Location Temp. Windchill Dew Point Humidity Wind Precip. Elev Updated Type
                   

Watches & Warnings

Small Craft Advisory
Issued: 2:56 AM CST Feb. 20, 2017 – National Weather Service

... Small Craft Advisory in effect from 2 PM this afternoon to
3 am CST Tuesday...

The National Weather Service in Milwaukee/Sullivan has issued a
Small Craft Advisory... which is in effect from 2 PM this
afternoon to 3 am CST Tuesday.

* Winds: southeast wind 10 to 15 knots with gusts to around 20
knots rising to 15 to 20 knots with gusts to around 30 knots in
the afternoon. Winds will then veer to southwest tonight before
diminishing.

* Waves: waves 1 to 3 feet building to 3 to 4 feet in the late
morning and afternoon. Waves 3 to 5 feet early this evening.

Precautionary/preparedness actions...

A Small Craft Advisory means that wind speeds of 21 to 33 knots
are expected to produce hazardous wave conditions to small craft.
Inexperienced mariners... especially those operating smaller
vessels should avoid navigating in these conditions.


Hentz

Www.Weather.Gov/mkx